sensor_id;sensor_type;location;lat;lon;timestamp;pressure;altitude;pressure_sealevel;temperature;humidity
40574;BME280;26283;49.020;8.644;2023-03-26T00:00:54;98768.53;;;14.44;56.09
40574;BME280;26283;49.020;8.644;2023-03-26T00:03:21;98771.50;;;14.43;56.11
40574;BME280;26283;49.020;8.644;2023-03-26T00:05:46;98768.78;;;14.43;56.11
40574;BME280;26283;49.020;8.644;2023-03-26T00:08:13;98775.28;;;14.42;56.10
40574;BME280;26283;49.020;8.644;2023-03-26T00:10:40;98770.94;;;14.40;56.10
40574;BME280;26283;49.020;8.644;2023-03-26T00:13:06;98769.28;;;14.39;56.13
40574;BME280;26283;49.020;8.644;2023-03-26T00:15:33;98769.28;;;14.39;56.16
40574;BME280;26283;49.020;8.644;2023-03-26T00:17:59;98778.47;;;14.38;56.15
40574;BME280;26283;49.020;8.644;2023-03-26T00:20:26;98769.53;;;14.38;56.16
40574;BME280;26283;49.020;8.644;2023-03-26T00:22:52;98775.19;;;14.36;56.22
40574;BME280;26283;49.020;8.644;2023-03-26T00:25:19;98772.47;;;14.36;56.20
40574;BME280;26283;49.020;8.644;2023-03-26T00:27:45;98774.37;;;14.36;56.22
40574;BME280;26283;49.020;8.644;2023-03-26T00:30:11;98775.44;;;14.35;56.24
40574;BME280;26283;49.020;8.644;2023-03-26T00:32:37;98776.53;;;14.34;56.25
40574;BME280;26283;49.020;8.644;2023-03-26T00:35:03;98773.81;;;14.34;56.23
40574;BME280;26283;49.020;8.644;2023-03-26T00:37:28;98772.19;;;14.33;56.29
40574;BME280;26283;49.020;8.644;2023-03-26T00:39:55;98764.28;;;14.31;56.26
40574;BME280;26283;49.020;8.644;2023-03-26T00:42:24;98756.16;;;14.31;56.24
40574;BME280;26283;49.020;8.644;2023-03-26T00:44:50;98746.41;;;14.30;56.20
40574;BME280;26283;49.020;8.644;2023-03-26T00:47:19;98753.44;;;14.31;56.17
40574;BME280;26283;49.020;8.644;2023-03-26T00:49:45;98749.09;;;14.30;56.23
40574;BME280;26283;49.020;8.644;2023-03-26T00:52:13;98742.87;;;14.30;56.23
40574;BME280;26283;49.020;8.644;2023-03-26T00:54:43;98745.84;;;14.28;56.22
40574;BME280;26283;49.020;8.644;2023-03-26T00:57:09;98729.59;;;14.28;56.21
40574;BME280;26283;49.020;8.644;2023-03-26T00:59:34;98725.25;;;14.27;56.25
40574;BME280;26283;49.020;8.644;2023-03-26T01:02:00;98723.62;;;14.26;56.27
40574;BME280;26283;49.020;8.644;2023-03-26T01:04:32;98715.72;;;14.25;56.26
40574;BME280;26283;49.020;8.644;2023-03-26T01:07:16;98715.72;;;14.25;56.30
40574;BME280;26283;49.020;8.644;2023-03-26T01:09:46;98716.81;;;14.24;56.41
40574;BME280;26283;49.020;8.644;2023-03-26T01:12:17;98716.00;;;14.23;56.12
40574;BME280;26283;49.020;8.644;2023-03-26T01:14:45;98708.94;;;14.22;56.18
40574;BME280;26283;49.020;8.644;2023-03-26T01:17:12;98710.81;;;14.22;56.17
40574;BME280;26283;49.020;8.644;2023-03-26T01:22:15;98691.28;;;14.20;56.21
40574;BME280;26283;49.020;8.644;2023-03-26T01:24:41;98685.06;;;14.19;56.31
40574;BME280;26283;49.020;8.644;2023-03-26T01:32:57;98674.47;;;14.18;56.17
40574;BME280;26283;49.020;8.644;2023-03-26T01:35:26;98680.13;;;14.16;56.46
40574;BME280;26283;49.020;8.644;2023-03-26T01:40:45;98667.66;;;14.15;56.46
40574;BME280;26283;49.020;8.644;2023-03-26T01:43:23;98663.31;;;14.14;56.27
40574;BME280;26283;49.020;8.644;2023-03-26T01:45:52;98657.06;;;14.14;56.30
40574;BME280;26283;49.020;8.644;2023-03-26T01:48:20;98648.12;;;14.13;56.18
40574;BME280;26283;49.020;8.644;2023-03-26T01:50:45;98647.31;;;14.13;56.22
40574;BME280;26283;49.020;8.644;2023-03-26T01:53:13;98648.12;;;14.13;56.27
40574;BME280;26283;49.020;8.644;2023-03-26T01:59:02;98635.09;;;14.10;56.45
40574;BME280;26283;49.020;8.644;2023-03-26T02:02:14;98637.81;;;14.10;56.39
40574;BME280;26283;49.020;8.644;2023-03-26T02:05:07;98628.03;;;14.09;56.51
40574;BME280;26283;49.020;8.644;2023-03-26T02:10:13;98610.44;;;14.06;56.19
40574;BME280;26283;49.020;8.644;2023-03-26T02:12:41;98608.78;;;14.05;56.40
40574;BME280;26283;49.020;8.644;2023-03-26T02:15:08;98604.19;;;14.06;56.23
40574;BME280;26283;49.020;8.644;2023-03-26T02:17:34;98597.97;;;14.05;56.22
40574;BME280;26283;49.020;8.644;2023-03-26T02:20:00;98597.13;;;14.05;56.25
40574;BME280;26283;49.020;8.644;2023-03-26T02:22:29;98596.31;;;14.04;56.26
40574;BME280;26283;49.020;8.644;2023-03-26T02:24:55;98581.97;;;14.04;56.26
40574;BME280;26283;49.020;8.644;2023-03-26T02:27:20;98590.09;;;14.04;56.24
40574;BME280;26283;49.020;8.644;2023-03-26T02:29:46;98581.13;;;14.03;56.25
40574;BME280;26283;49.020;8.644;2023-03-26T02:32:12;98574.91;;;14.03;56.26
40574;BME280;26283;49.020;8.644;2023-03-26T02:34:41;98576.78;;;14.02;56.34
40574;BME280;26283;49.020;8.644;2023-03-26T02:37:08;98568.66;;;14.02;56.40
40574;BME280;26283;49.020;8.644;2023-03-26T02:39:34;98567.03;;;14.01;56.34
40574;BME280;26283;49.020;8.644;2023-03-26T02:41:59;98558.09;;;14.01;56.38
40574;BME280;26283;49.020;8.644;2023-03-26T02:44:25;98551.03;;;14.00;56.38
40574;BME280;26283;49.020;8.644;2023-03-26T02:46:51;98552.66;;;14.01;56.41
40574;BME280;26283;49.020;8.644;2023-03-26T02:49:16;98554.81;;;13.99;56.42
40574;BME280;26283;49.020;8.644;2023-03-26T02:51:42;98554.81;;;13.99;56.40
40574;BME280;26283;49.020;8.644;2023-03-26T02:54:07;98550.47;;;13.98;56.36
40574;BME280;26283;49.020;8.644;2023-03-26T02:56:33;98550.47;;;13.98;56.38
40574;BME280;26283;49.020;8.644;2023-03-26T02:58:58;98545.06;;;13.98;56.37
40574;BME280;26283;49.020;8.644;2023-03-26T03:01:23;98539.06;;;13.96;56.39
40574;BME280;26283;49.020;8.644;2023-03-26T03:03:49;98534.47;;;13.96;56.38
40574;BME280;26283;49.020;8.644;2023-03-26T03:06:15;98538.25;;;13.95;56.40
40574;BME280;26283;49.020;8.644;2023-03-26T03:08:43;98537.44;;;13.95;56.38
40574;BME280;26283;49.020;8.644;2023-03-26T03:11:14;98534.16;;;13.93;56.29
40574;BME280;26283;49.020;8.644;2023-03-26T03:13:40;98534.16;;;13.93;56.31
40574;BME280;26283;49.020;8.644;2023-03-26T03:16:06;98532.53;;;13.92;56.29
40574;BME280;26283;49.020;8.644;2023-03-26T03:18:32;98519.56;;;13.94;56.36
40574;BME280;26283;49.020;8.644;2023-03-26T03:20:57;98510.88;;;13.92;56.41
40574;BME280;26283;49.020;8.644;2023-03-26T03:23:23;98507.59;;;13.90;56.43
40574;BME280;26283;49.020;8.644;2023-03-26T03:25:48;98507.59;;;13.90;56.42
40574;BME280;26283;49.020;8.644;2023-03-26T03:28:16;98496.75;;;13.90;56.41
40574;BME280;26283;49.020;8.644;2023-03-26T03:30:42;98492.41;;;13.89;56.35
40574;BME280;26283;49.020;8.644;2023-03-26T03:33:08;98493.50;;;13.88;56.34
40574;BME280;26283;49.020;8.644;2023-03-26T03:35:33;98498.09;;;13.87;56.36
40574;BME280;26283;49.020;8.644;2023-03-26T03:38:00;98494.56;;;13.87;56.33
40574;BME280;26283;49.020;8.644;2023-03-26T03:40:25;98490.22;;;13.86;56.37
40574;BME280;26283;49.020;8.644;2023-03-26T03:42:51;98484.81;;;13.86;56.37
40574;BME280;26283;49.020;8.644;2023-03-26T03:45:17;98483.22;;;13.85;56.37
40574;BME280;26283;49.020;8.644;2023-03-26T03:47:43;98479.69;;;13.84;56.45
40574;BME280;26283;49.020;8.644;2023-03-26T03:50:08;98478.88;;;13.84;56.43
40574;BME280;26283;49.020;8.644;2023-03-26T03:52:34;98479.94;;;13.83;56.44
40574;BME280;26283;49.020;8.644;2023-03-26T03:55:00;98473.69;;;13.82;56.50
40574;BME280;26283;49.020;8.644;2023-03-26T03:57:26;98473.69;;;13.82;56.53
40574;BME280;26283;49.020;8.644;2023-03-26T03:59:51;98462.88;;;13.82;56.53
40574;BME280;26283;49.020;8.644;2023-03-26T04:02:17;98455.00;;;13.81;56.53
40574;BME280;26283;49.020;8.644;2023-03-26T04:04:53;98445.25;;;13.80;56.50
40574;BME280;26283;49.020;8.644;2023-03-26T04:07:19;98447.94;;;13.80;56.46
40574;BME280;26283;49.020;8.644;2023-03-26T04:09:45;98442.53;;;13.80;56.51
40574;BME280;26283;49.020;8.644;2023-03-26T04:12:10;98421.13;;;13.78;56.50
40574;BME280;26283;49.020;8.644;2023-03-26T04:14:35;98415.72;;;13.78;56.54
40574;BME280;26283;49.020;8.644;2023-03-26T04:17:01;98408.66;;;13.77;56.61
40574;BME280;26283;49.020;8.644;2023-03-26T04:19:29;98409.75;;;13.76;56.63
40574;BME280;26283;49.020;8.644;2023-03-26T04:21:55;98415.16;;;13.76;56.63
40574;BME280;26283;49.020;8.644;2023-03-26T04:24:20;98406.22;;;13.76;56.62
40574;BME280;26283;49.020;8.644;2023-03-26T04:26:48;98399.16;;;13.75;56.64
40574;BME280;26283;49.020;8.644;2023-03-26T04:29:15;98401.88;;;13.75;56.67
40574;BME280;26283;49.020;8.644;2023-03-26T04:31:42;98398.34;;;13.74;56.69
40574;BME280;26283;49.020;8.644;2023-03-26T04:34:16;98385.87;;;13.73;56.64
40574;BME280;26283;49.020;8.644;2023-03-26T04:36:44;98379.66;;;13.72;56.72
40574;BME280;26283;49.020;8.644;2023-03-26T04:39:11;98367.19;;;13.71;56.65
40574;BME280;26283;49.020;8.644;2023-03-26T04:41:37;98365.31;;;13.72;56.74
40574;BME280;26283;49.020;8.644;2023-03-26T04:44:02;98358.50;;;13.69;56.76
40574;BME280;26283;49.020;8.644;2023-03-26T04:46:28;98357.44;;;13.70;56.77
40574;BME280;26283;49.020;8.644;2023-03-26T04:48:58;98366.62;;;13.69;56.83
40574;BME280;26283;49.020;8.644;2023-03-26T04:51:32;98370.41;;;13.68;56.81
40574;BME280;26283;49.020;8.644;2023-03-26T04:54:02;98363.94;;;13.69;56.89
40574;BME280;26283;49.020;8.644;2023-03-26T04:59:04;98363.37;;;13.67;56.94
40574;BME280;26283;49.020;8.644;2023-03-26T05:01:30;98361.75;;;13.66;56.88
40574;BME280;26283;49.020;8.644;2023-03-26T05:03:56;98367.16;;;13.66;56.97
40574;BME280;26283;49.020;8.644;2023-03-26T05:06:25;98358.22;;;13.66;56.96
40574;BME280;26283;49.020;8.644;2023-03-26T05:08:53;98347.66;;;13.64;56.98
40574;BME280;26283;49.020;8.644;2023-03-26T05:11:19;98348.47;;;13.65;57.04
40574;BME280;26283;49.020;8.644;2023-03-26T05:13:44;98347.94;;;13.63;57.08
40574;BME280;26283;49.020;8.644;2023-03-26T05:16:11;98340.06;;;13.61;56.96
40574;BME280;26283;49.020;8.644;2023-03-26T05:18:37;98337.38;;;13.61;56.97
40574;BME280;26283;49.020;8.644;2023-03-26T05:21:02;98322.75;;;13.62;56.95
40574;BME280;26283;49.020;8.644;2023-03-26T05:23:28;98323.81;;;13.61;56.95
40574;BME280;26283;49.020;8.644;2023-03-26T05:25:54;98305.97;;;13.60;57.03
40574;BME280;26283;49.020;8.644;2023-03-26T05:28:19;98305.12;;;13.60;57.03
40574;BME280;26283;49.020;8.644;2023-03-26T05:30:48;98302.44;;;13.60;56.97
40574;BME280;26283;49.020;8.644;2023-03-26T05:33:15;98293.50;;;13.59;56.94
40574;BME280;26283;49.020;8.644;2023-03-26T05:35:40;98282.66;;;13.59;56.96
40574;BME280;26283;49.020;8.644;2023-03-26T05:38:05;98275.62;;;13.58;56.94
40574;BME280;26283;49.020;8.644;2023-03-26T05:40:31;98287.53;;;13.57;56.92
40574;BME280;26283;49.020;8.644;2023-03-26T05:42:56;98276.69;;;13.57;56.91
40574;BME280;26283;49.020;8.644;2023-03-26T05:45:21;98268.03;;;13.55;56.93
40574;BME280;26283;49.020;8.644;2023-03-26T05:47:47;98262.34;;;13.57;56.95
40574;BME280;26283;49.020;8.644;2023-03-26T05:50:13;98251.78;;;13.55;57.06
40574;BME280;26283;49.020;8.644;2023-03-26T05:52:39;98244.47;;;13.56;57.13
40574;BME280;26283;49.020;8.644;2023-03-26T05:55:05;98238.50;;;13.54;57.24
40574;BME280;26283;49.020;8.644;2023-03-26T05:57:32;98228.50;;;13.54;57.27
40574;BME280;26283;49.020;8.644;2023-03-26T05:59:59;98232.28;;;13.53;57.30
40574;BME280;26283;49.020;8.644;2023-03-26T06:02:25;98224.97;;;13.54;57.25
40574;BME280;26283;49.020;8.644;2023-03-26T06:04:50;98221.44;;;13.53;57.32
40574;BME280;26283;49.020;8.644;2023-03-26T06:07:17;98212.78;;;13.51;57.36
40574;BME280;26283;49.020;8.644;2023-03-26T06:09:43;98212.78;;;13.51;57.40
40574;BME280;26283;49.020;8.644;2023-03-26T06:12:09;98210.06;;;13.51;57.42
40574;BME280;26283;49.020;8.644;2023-03-26T06:14:35;98203.84;;;13.51;57.51
40574;BME280;26283;49.020;8.644;2023-03-26T06:17:01;98201.13;;;13.51;57.48
40574;BME280;26283;49.020;8.644;2023-03-26T06:19:26;98197.63;;;13.50;57.50
40574;BME280;26283;49.020;8.644;2023-03-26T06:21:52;98193.28;;;13.49;57.55
40574;BME280;26283;49.020;8.644;2023-03-26T06:24:17;98196.81;;;13.50;57.59
40574;BME280;26283;49.020;8.644;2023-03-26T06:26:44;98191.66;;;13.48;57.59
40574;BME280;26283;49.020;8.644;2023-03-26T06:29:11;98192.47;;;13.49;57.63
40574;BME280;26283;49.020;8.644;2023-03-26T06:31:36;98195.44;;;13.47;57.69
40574;BME280;26283;49.020;8.644;2023-03-26T06:34:02;98184.59;;;13.47;57.66
40574;BME280;26283;49.020;8.644;2023-03-26T06:36:27;98182.97;;;13.46;57.72
40574;BME280;26283;49.020;8.644;2023-03-26T06:38:53;98180.81;;;13.48;57.78
40574;BME280;26283;49.020;8.644;2023-03-26T06:41:18;98170.53;;;13.45;57.80
40574;BME280;26283;49.020;8.644;2023-03-26T06:43:43;98175.94;;;13.45;57.80
40574;BME280;26283;49.020;8.644;2023-03-26T06:46:09;98166.19;;;13.44;57.84
40574;BME280;26283;49.020;8.644;2023-03-26T06:48:35;98154.53;;;13.44;57.84
40574;BME280;26283;49.020;8.644;2023-03-26T06:51:01;98166.19;;;13.44;57.76
40574;BME280;26283;49.020;8.644;2023-03-26T06:53:26;98164.56;;;13.43;57.67
40574;BME280;26283;49.020;8.644;2023-03-26T06:55:52;98173.78;;;13.42;57.55
40574;BME280;26283;49.020;8.644;2023-03-26T06:58:18;98182.97;;;13.41;57.39
40574;BME280;26283;49.020;8.644;2023-03-26T07:00:44;98176.50;;;13.42;57.39
40574;BME280;26283;49.020;8.644;2023-03-26T07:03:09;98171.34;;;13.41;57.46
40574;BME280;26283;49.020;8.644;2023-03-26T07:05:36;98159.97;;;13.38;57.37
40574;BME280;26283;49.020;8.644;2023-03-26T07:08:01;98161.59;;;13.40;57.31
40574;BME280;26283;49.020;8.644;2023-03-26T07:10:27;98157.25;;;13.38;57.35
40574;BME280;26283;49.020;8.644;2023-03-26T07:12:52;98158.06;;;13.39;57.38
40574;BME280;26283;49.020;8.644;2023-03-26T07:15:18;98153.72;;;13.38;57.32
40574;BME280;26283;49.020;8.644;2023-03-26T07:17:43;98154.53;;;13.38;57.32
40574;BME280;26283;49.020;8.644;2023-03-26T07:20:09;98142.91;;;13.38;57.37
40574;BME280;26283;49.020;8.644;2023-03-26T07:22:35;98146.69;;;13.37;57.36
40574;BME280;26283;49.020;8.644;2023-03-26T07:25:00;98145.62;;;13.38;57.37
40574;BME280;26283;49.020;8.644;2023-03-26T07:27:31;98146.69;;;13.37;57.36
40574;BME280;26283;49.020;8.644;2023-03-26T07:30:24;98143.97;;;13.37;57.40
40574;BME280;26283;49.020;8.644;2023-03-26T07:33:03;98151.28;;;13.36;57.70
40574;BME280;26283;49.020;8.644;2023-03-26T07:35:38;98142.34;;;13.36;57.65
40574;BME280;26283;49.020;8.644;2023-03-26T07:46:11;98110.41;;;13.33;57.91
40574;BME280;26283;49.020;8.644;2023-03-26T07:48:42;98101.47;;;13.32;57.79
40574;BME280;26283;49.020;8.644;2023-03-26T07:51:08;98092.53;;;13.32;57.98
40574;BME280;26283;49.020;8.644;2023-03-26T07:53:34;98079.03;;;13.32;58.05
40574;BME280;26283;49.020;8.644;2023-03-26T07:56:11;98075.50;;;13.31;58.12
40574;BME280;26283;49.020;8.644;2023-03-26T08:01:53;98061.16;;;13.31;58.19
40574;BME280;26283;49.020;8.644;2023-03-26T08:07:36;98053.03;;;13.31;58.21
40574;BME280;26283;49.020;8.644;2023-03-26T08:09:52;98053.03;;;13.31;58.34
40574;BME280;26283;49.020;8.644;2023-03-26T08:14:51;98057.91;;;13.29;58.44
40574;BME280;26283;49.020;8.644;2023-03-26T08:20:23;98068.72;;;13.29;58.69
40574;BME280;26283;49.020;8.644;2023-03-26T08:23:33;98078.72;;;13.28;58.71
40574;BME280;26283;49.020;8.644;2023-03-26T08:31:38;98055.47;;;13.27;59.08
40574;BME280;26283;49.020;8.644;2023-03-26T08:34:09;98069.25;;;13.26;58.87
40574;BME280;26283;49.020;8.644;2023-03-26T08:36:35;98067.63;;;13.25;58.94
40574;BME280;26283;49.020;8.644;2023-03-26T08:39:01;98066.00;;;13.24;58.94
40574;BME280;26283;49.020;8.644;2023-03-26T08:42:25;98080.87;;;13.26;58.97
40574;BME280;26283;49.020;8.644;2023-03-26T08:47:37;98078.44;;;13.25;59.13
40574;BME280;26283;49.020;8.644;2023-03-26T08:55:55;98056.25;;;13.23;59.27
40574;BME280;26283;49.020;8.644;2023-03-26T09:07:07;98057.06;;;13.23;59.38
40574;BME280;26283;49.020;8.644;2023-03-26T09:13:28;98037.31;;;13.23;59.46
40574;BME280;26283;49.020;8.644;2023-03-26T09:30:50;98044.09;;;13.20;59.53
40574;BME280;26283;49.020;8.644;2023-03-26T09:36:29;98051.66;;;13.18;59.55
40574;BME280;26283;49.020;8.644;2023-03-26T09:39:09;98053.28;;;13.19;59.53
40574;BME280;26283;49.020;8.644;2023-03-26T09:41:42;98055.19;;;13.19;59.55
40574;BME280;26283;49.020;8.644;2023-03-26T09:44:16;98054.09;;;13.20;59.54
40574;BME280;26283;49.020;8.644;2023-03-26T09:47:09;98040.56;;;13.20;59.56
40574;BME280;26283;49.020;8.644;2023-03-26T10:01:13;98018.94;;;13.20;59.56
40574;BME280;26283;49.020;8.644;2023-03-26T10:03:52;98022.72;;;13.19;59.53
40574;BME280;26283;49.020;8.644;2023-03-26T10:06:29;98017.31;;;13.19;59.54
40574;BME280;26283;49.020;8.644;2023-03-26T10:09:06;98018.38;;;13.18;59.55
40574;BME280;26283;49.020;8.644;2023-03-26T10:14:47;98025.41;;;13.19;59.59
40574;BME280;26283;49.020;8.644;2023-03-26T10:17:30;98037.88;;;13.20;59.59
40574;BME280;26283;49.020;8.644;2023-03-26T10:29:22;98013.53;;;13.20;59.60
40574;BME280;26283;49.020;8.644;2023-03-26T10:34:19;98022.47;;;13.20;59.53
40574;BME280;26283;49.020;8.644;2023-03-26T10:37:10;98017.81;;;13.21;59.60
40574;BME280;26283;49.020;8.644;2023-03-26T10:40:30;98019.75;;;13.20;59.58
40574;BME280;26283;49.020;8.644;2023-03-26T10:52:17;98010.81;;;13.20;59.59
40574;BME280;26283;49.020;8.644;2023-03-26T10:57:52;98015.41;;;13.19;59.61
40574;BME280;26283;49.020;8.644;2023-03-26T11:00:25;98009.72;;;13.21;59.60
40574;BME280;26283;49.020;8.644;2023-03-26T11:03:02;97998.88;;;13.21;59.59
40574;BME280;26283;49.020;8.644;2023-03-26T11:14:14;97993.22;;;13.22;59.57
40574;BME280;26283;49.020;8.644;2023-03-26T11:16:53;97999.44;;;13.23;59.56
40574;BME280;26283;49.020;8.644;2023-03-26T11:19:27;97996.47;;;13.24;59.51
40574;BME280;26283;49.020;8.644;2023-03-26T11:31:16;97995.13;;;13.27;59.48
40574;BME280;26283;49.020;8.644;2023-03-26T11:33:47;97998.66;;;13.27;59.46
40574;BME280;26283;49.020;8.644;2023-03-26T11:36:21;98004.87;;;13.28;59.42
40574;BME280;26283;49.020;8.644;2023-03-26T11:38:49;98005.69;;;13.28;59.45
40574;BME280;26283;49.020;8.644;2023-03-26T11:41:23;98003.78;;;13.29;59.44
40574;BME280;26283;49.020;8.644;2023-03-26T11:43:56;97999.19;;;13.29;59.44
40574;BME280;26283;49.020;8.644;2023-03-26T11:46:24;97992.72;;;13.30;59.41
40574;BME280;26283;49.020;8.644;2023-03-26T11:49:02;98009.75;;;13.31;59.38
40574;BME280;26283;49.020;8.644;2023-03-26T11:51:36;98004.91;;;13.33;59.38
40574;BME280;26283;49.020;8.644;2023-03-26T11:54:03;97994.06;;;13.33;59.32
40574;BME280;26283;49.020;8.644;2023-03-26T11:56:32;97998.13;;;13.35;59.32
40574;BME280;26283;49.020;8.644;2023-03-26T12:02:14;97997.88;;;13.37;59.27
40574;BME280;26283;49.020;8.644;2023-03-26T12:04:41;98000.59;;;13.37;59.23
40574;BME280;26283;49.020;8.644;2023-03-26T12:07:29;98001.41;;;13.37;59.18
40574;BME280;26283;49.020;8.644;2023-03-26T12:09:59;98002.22;;;13.38;59.18
40574;BME280;26283;49.020;8.644;2023-03-26T12:12:30;97991.13;;;13.40;59.15
40574;BME280;26283;49.020;8.644;2023-03-26T12:14:57;98000.88;;;13.41;59.13
40574;BME280;26283;49.020;8.644;2023-03-26T12:17:28;97993.56;;;13.41;59.13
40574;BME280;26283;49.020;8.644;2023-03-26T12:19:54;98014.91;;;13.43;59.10
40574;BME280;26283;49.020;8.644;2023-03-26T12:25:19;97998.41;;;13.44;59.05
40574;BME280;26283;49.020;8.644;2023-03-26T12:27:51;98001.94;;;13.45;59.04
40574;BME280;26283;49.020;8.644;2023-03-26T12:30:21;97993.53;;;13.46;58.99
40574;BME280;26283;49.020;8.644;2023-03-26T12:32:48;97988.94;;;13.47;58.96
40574;BME280;26283;49.020;8.644;2023-03-26T12:35:17;97973.53;;;13.47;58.95
40574;BME280;26283;49.020;8.644;2023-03-26T12:37:45;97984.34;;;13.47;58.93
40574;BME280;26283;49.020;8.644;2023-03-26T12:40:34;97965.13;;;13.49;58.91
40574;BME280;26283;49.020;8.644;2023-03-26T12:43:07;97980.03;;;13.51;58.91
40574;BME280;26283;49.020;8.644;2023-03-26T12:45:47;97959.47;;;13.50;58.85
40574;BME280;26283;49.020;8.644;2023-03-26T12:48:15;97961.91;;;13.52;58.85
40574;BME280;26283;49.020;8.644;2023-03-26T12:56:18;97955.12;;;13.54;58.75
40574;BME280;26283;49.020;8.644;2023-03-26T12:59:00;97966.78;;;13.55;58.73
40574;BME280;26283;49.020;8.644;2023-03-26T13:07:21;97950.81;;;13.58;58.69
40574;BME280;26283;49.020;8.644;2023-03-26T13:09:52;97937.28;;;13.58;58.68
40574;BME280;26283;49.020;8.644;2023-03-26T13:23:19;97950.81;;;13.63;58.59
40574;BME280;26283;49.020;8.644;2023-03-26T13:26:12;97947.81;;;13.65;58.56
40574;BME280;26283;49.020;8.644;2023-03-26T13:29:01;97937.81;;;13.65;58.53
40574;BME280;26283;49.020;8.644;2023-03-26T13:31:35;97938.62;;;13.66;58.49
40574;BME280;26283;49.020;8.644;2023-03-26T13:37:17;97925.34;;;13.69;58.41
40574;BME280;26283;49.020;8.644;2023-03-26T13:40:01;97932.41;;;13.70;58.38
40574;BME280;26283;49.020;8.644;2023-03-26T13:42:37;97924.81;;;13.72;58.34
40574;BME280;26283;49.020;8.644;2023-03-26T13:47:42;97930.78;;;13.75;58.31
40574;BME280;26283;49.020;8.644;2023-03-26T13:50:24;97931.59;;;13.75;58.30
40574;BME280;26283;49.020;8.644;2023-03-26T13:52:58;97930.50;;;13.76;58.29
40574;BME280;26283;49.020;8.644;2023-03-26T13:55:36;97922.38;;;13.76;58.29
40574;BME280;26283;49.020;8.644;2023-03-26T13:58:24;97922.13;;;13.78;58.27
40574;BME280;26283;49.020;8.644;2023-03-26T14:01:05;97931.06;;;13.78;58.27
40574;BME280;26283;49.020;8.644;2023-03-26T14:06:34;97940.81;;;13.79;58.24
40574;BME280;26283;49.020;8.644;2023-03-26T14:09:11;97938.91;;;13.80;58.22
40574;BME280;26283;49.020;8.644;2023-03-26T14:11:46;97958.41;;;13.82;58.22
40574;BME280;26283;49.020;8.644;2023-03-26T14:14:25;97961.13;;;13.82;58.19
40574;BME280;26283;49.020;8.644;2023-03-26T14:17:00;97961.94;;;13.82;58.17
40574;BME280;26283;49.020;8.644;2023-03-26T14:36:43;98049.37;;;13.88;58.08
40574;BME280;26283;49.020;8.644;2023-03-26T14:53:44;98062.91;;;13.93;58.02
40574;BME280;26283;49.020;8.644;2023-03-26T15:10:21;98043.44;;;13.96;57.97
40574;BME280;26283;49.020;8.644;2023-03-26T15:13:22;98028.81;;;13.97;57.96
40574;BME280;26283;49.020;8.644;2023-03-26T15:16:07;98038.56;;;13.98;57.95
40574;BME280;26283;49.020;8.644;2023-03-26T15:27:23;98021.22;;;13.99;57.90
40574;BME280;26283;49.020;8.644;2023-03-26T15:35:30;98006.31;;;14.01;57.89
40574;BME280;26283;49.020;8.644;2023-03-26T15:40:41;97984.94;;;14.05;57.85
40574;BME280;26283;49.020;8.644;2023-03-26T15:43:15;97980.31;;;14.11;57.21
40574;BME280;26283;49.020;8.644;2023-03-26T15:54:31;97982.47;;;14.08;56.70
40574;BME280;26283;49.020;8.644;2023-03-26T16:02:51;97982.50;;;14.03;56.97
40574;BME280;26283;49.020;8.644;2023-03-26T16:10:47;98007.16;;;14.02;57.03
40574;BME280;26283;49.020;8.644;2023-03-26T16:15:54;98016.34;;;14.01;56.92
40574;BME280;26283;49.020;8.644;2023-03-26T16:18:28;98012.03;;;14.00;56.98
40574;BME280;26283;49.020;8.644;2023-03-26T16:21:22;98030.16;;;13.99;56.93
40574;BME280;26283;49.020;8.644;2023-03-26T16:23:56;98022.84;;;14.00;56.90
40574;BME280;26283;49.020;8.644;2023-03-26T16:29:14;98023.94;;;13.99;56.88
40574;BME280;26283;49.020;8.644;2023-03-26T16:37:05;98031.50;;;13.97;56.81
40574;BME280;26283;49.020;8.644;2023-03-26T16:39:50;98039.38;;;13.98;56.75
40574;BME280;26283;49.020;8.644;2023-03-26T16:42:33;98048.31;;;13.99;56.71
40574;BME280;26283;49.020;8.644;2023-03-26T16:45:13;98046.12;;;13.96;56.84
40574;BME280;26283;49.020;8.644;2023-03-26T16:48:12;98047.50;;;13.98;56.71
40574;BME280;26283;49.020;8.644;2023-03-26T16:51:02;98048.56;;;13.97;56.86
40574;BME280;26283;49.020;8.644;2023-03-26T16:56:20;98050.47;;;13.97;56.73
40574;BME280;26283;49.020;8.644;2023-03-26T16:58:54;98052.38;;;13.96;56.66
40574;BME280;26283;49.020;8.644;2023-03-26T17:01:44;98047.22;;;13.95;56.64
40574;BME280;26283;49.020;8.644;2023-03-26T17:04:23;98052.63;;;13.95;56.87
40574;BME280;26283;49.020;8.644;2023-03-26T17:07:19;98056.97;;;13.96;56.77
40574;BME280;26283;49.020;8.644;2023-03-26T17:09:53;98059.13;;;13.94;56.83
40574;BME280;26283;49.020;8.644;2023-03-26T17:18:14;98057.22;;;13.94;56.63
40574;BME280;26283;49.020;8.644;2023-03-26T17:21:03;98058.31;;;13.93;56.51
40574;BME280;26283;49.020;8.644;2023-03-26T17:26:18;98051.28;;;13.92;56.53
40574;BME280;26283;49.020;8.644;2023-03-26T17:31:44;98052.34;;;13.91;56.73
40574;BME280;26283;49.020;8.644;2023-03-26T17:37:30;98043.41;;;13.91;56.74
40574;BME280;26283;49.020;8.644;2023-03-26T17:45:07;98036.38;;;13.90;56.54
40574;BME280;26283;49.020;8.644;2023-03-26T17:47:44;98036.38;;;13.90;56.63
40574;BME280;26283;49.020;8.644;2023-03-26T17:50:13;98035.56;;;13.89;56.39
40574;BME280;26283;49.020;8.644;2023-03-26T17:52:48;98039.09;;;13.90;56.36
40574;BME280;26283;49.020;8.644;2023-03-26T17:55:19;98037.44;;;13.89;56.44
40574;BME280;26283;49.020;8.644;2023-03-26T17:57:52;98036.38;;;13.90;56.34
40574;BME280;26283;49.020;8.644;2023-03-26T18:00:22;98047.47;;;13.88;56.40
40574;BME280;26283;49.020;8.644;2023-03-26T18:02:55;98051.25;;;13.87;56.31
40574;BME280;26283;49.020;8.644;2023-03-26T18:05:23;98044.75;;;13.88;56.31
40574;BME280;26283;49.020;8.644;2023-03-26T18:16:48;98051.53;;;13.86;56.42
40574;BME280;26283;49.020;8.644;2023-03-26T18:19:17;98050.75;;;13.85;56.18
40574;BME280;26283;49.020;8.644;2023-03-26T18:21:55;98060.75;;;13.85;56.25